createdAt,value
2017-04-03T00:00:03.136Z,926.76
2017-04-03T00:00:31.506Z,926.74
2017-04-03T00:01:42.763Z,926.75
2017-04-03T00:02:11.139Z,926.72
2017-04-03T00:02:39.479Z,926.75
2017-04-03T00:03:07.823Z,926.75
2017-04-03T00:03:36.238Z,926.71
2017-04-03T00:04:04.710Z,926.76
2017-04-03T00:04:32.888Z,926.76
2017-04-03T00:05:01.290Z,926.77
2017-04-03T00:05:29.622Z,926.75
2017-04-03T00:05:57.969Z,926.79
2017-04-03T00:06:26.339Z,926.77
2017-04-03T00:07:37.691Z,926.8
2017-04-03T00:08:05.989Z,926.78
2017-04-03T00:08:34.354Z,926.83
2017-04-03T00:09:02.681Z,926.84
2017-04-03T00:09:31.119Z,926.76
2017-04-03T00:09:59.390Z,926.77
2017-04-03T00:10:27.739Z,926.76
2017-04-03T00:10:56.049Z,926.83
2017-04-03T00:11:24.475Z,926.86
2017-04-03T00:11:52.808Z,926.85
2017-04-03T00:12:21.066Z,926.84
2017-04-03T00:13:32.762Z,926.87
2017-04-03T00:14:01.155Z,926.88
2017-04-03T00:14:29.521Z,926.84
2017-04-03T00:14:57.852Z,926.85
2017-04-03T00:15:26.298Z,926.85
2017-04-03T00:15:54.554Z,926.88
2017-04-03T00:16:22.947Z,926.9
2017-04-03T00:16:51.261Z,926.9
2017-04-03T00:17:19.740Z,926.93
2017-04-03T00:17:47.997Z,926.88
2017-04-03T00:18:16.363Z,926.9
2017-04-03T00:19:27.710Z,926.97
2017-04-03T00:19:56.077Z,926.98
2017-04-03T00:20:24.410Z,926.98
2017-04-03T00:20:52.896Z,927.03
2017-04-03T00:21:21.299Z,926.98
2017-04-03T00:21:49.571Z,926.99
2017-04-03T00:22:17.933Z,927
2017-04-03T00:22:46.371Z,926.97
2017-04-03T00:23:14.841Z,926.99
2017-04-03T00:23:43.097Z,926.94
2017-04-03T00:24:11.787Z,927
2017-04-03T00:25:23.047Z,927
2017-04-03T00:25:51.371Z,927
2017-04-03T00:26:19.723Z,927.02
2017-04-03T00:26:48.073Z,926.98
2017-04-03T00:27:16.489Z,927.03
2017-04-03T00:27:44.696Z,927.02
2017-04-03T00:28:13.022Z,927.04
2017-04-03T00:28:41.347Z,927.03
2017-04-03T00:29:09.824Z,927.1
2017-04-03T00:29:38.164Z,927.12
2017-04-03T00:30:06.537Z,927.08
2017-04-03T00:31:17.891Z,927.14
2017-04-03T00:31:46.305Z,927.12
2017-04-03T00:32:14.627Z,927.15
2017-04-03T00:32:42.887Z,927.1
2017-04-03T00:33:11.220Z,927.17
2017-04-03T00:33:39.918Z,927.17
2017-04-03T00:34:08.199Z,927.16
2017-04-03T00:34:36.513Z,927.17
2017-04-03T00:35:04.934Z,927.14
2017-04-03T00:35:33.195Z,927.23
2017-04-03T00:36:02.235Z,927.15
2017-04-03T00:37:13.590Z,927.13
2017-04-03T00:37:41.908Z,927.13
2017-04-03T00:38:10.169Z,927.13
2017-04-03T00:38:38.434Z,927.15
2017-04-03T00:39:06.862Z,927.11
2017-04-03T00:39:35.251Z,927.1
2017-04-03T00:40:03.623Z,927.12
2017-04-03T00:40:31.965Z,927.14
2017-04-03T00:41:00.395Z,927.11
2017-04-03T00:41:28.773Z,927.13
2017-04-03T00:41:57.072Z,927.14
2017-04-03T00:43:08.408Z,927.11
2017-04-03T00:43:36.655Z,927.11
2017-04-03T00:44:04.979Z,927.16
2017-04-03T00:44:33.254Z,927.14
2017-04-03T00:45:01.729Z,927.12
2017-04-03T00:45:30.002Z,927.11
2017-04-03T00:45:58.342Z,927.17
2017-04-03T00:46:26.674Z,927.11
2017-04-03T00:46:54.972Z,927.14
2017-04-03T00:47:23.336Z,927.11
2017-04-03T00:47:51.721Z,927.14
2017-04-03T00:49:03.082Z,927.14
2017-04-03T00:49:31.469Z,927.16
2017-04-03T00:49:59.693Z,927.11
2017-04-03T00:50:27.910Z,927.11
2017-04-03T00:50:56.162Z,927.08
2017-04-03T00:51:24.610Z,927.09
2017-04-03T00:51:52.981Z,927.1
2017-04-03T00:52:21.368Z,927.12
2017-04-03T00:52:49.842Z,927.09
2017-04-03T00:53:18.089Z,927.12
2017-04-03T00:53:46.372Z,927.13
2017-04-03T00:54:57.721Z,927.09
2017-04-03T00:55:25.936Z,927.16
2017-04-03T00:55:54.104Z,927.12
2017-04-03T00:56:22.418Z,927.08
2017-04-03T00:56:50.735Z,927.16
2017-04-03T00:57:19.154Z,927.13
2017-04-03T00:57:47.498Z,927.11
2017-04-03T00:58:15.799Z,927.13
2017-04-03T00:58:44.257Z,927.09
2017-04-03T00:59:12.531Z,927.13
2017-04-03T00:59:40.770Z,927.13
2017-04-03T01:00:52.261Z,927.13
2017-04-03T01:01:20.569Z,927.12
2017-04-03T01:01:48.811Z,927.13
2017-04-03T01:02:17.002Z,927.13
2017-04-03T01:02:45.414Z,927.12
2017-04-03T01:03:13.840Z,927.09
2017-04-03T01:03:42.194Z,927.19
2017-04-03T01:04:10.629Z,927.14
2017-04-03T01:04:38.851Z,927.13
2017-04-03T01:05:06.917Z,927.1
2017-04-03T01:05:35.183Z,927.1
2017-04-03T01:06:46.863Z,927.14
2017-04-03T01:07:15.253Z,927.12
2017-04-03T01:07:43.605Z,927.1
2017-04-03T01:08:11.782Z,927.08
2017-04-03T01:08:40.195Z,927.08
2017-04-03T01:09:08.647Z,927.07
2017-04-03T01:09:36.937Z,927.08
2017-04-03T01:10:05.272Z,927.07
2017-04-03T01:10:33.714Z,927.05
2017-04-03T01:11:01.966Z,927.09
2017-04-03T01:11:30.246Z,927.05
2017-04-03T01:12:41.526Z,927.08
2017-04-03T01:13:09.938Z,927.06
2017-04-03T01:13:38.297Z,927.08
2017-04-03T01:14:06.424Z,927.04
2017-04-03T01:14:34.675Z,927
2017-04-03T01:15:03.051Z,927.06
2017-04-03T01:15:31.437Z,927.03
2017-04-03T01:15:59.764Z,927.03
2017-04-03T01:16:28.133Z,927.06
2017-04-03T01:16:56.441Z,927.06
2017-04-03T01:17:24.705Z,927.02
2017-04-03T01:18:36.069Z,927.06
2017-04-03T01:19:04.438Z,927.02
2017-04-03T01:19:32.772Z,927
2017-04-03T01:20:01.133Z,927.03
2017-04-03T01:20:29.506Z,927.06
2017-04-03T01:20:57.906Z,927.05
2017-04-03T01:21:26.261Z,927.02
2017-04-03T01:21:55.237Z,927.05
2017-04-03T01:22:23.706Z,927
2017-04-03T01:22:52.089Z,927.04
2017-04-03T01:23:20.330Z,927.03
2017-04-03T01:24:31.680Z,926.98
2017-04-03T01:25:00.083Z,926.99
2017-04-03T01:25:28.363Z,926.99
2017-04-03T01:25:56.714Z,926.98
2017-04-03T01:26:25.023Z,927.01
2017-04-03T01:26:53.513Z,927
2017-04-03T01:27:21.757Z,927.02
2017-04-03T01:27:50.099Z,927.05
2017-04-03T01:28:18.577Z,926.99
2017-04-03T01:28:46.797Z,926.97
2017-04-03T01:29:15.128Z,926.98
2017-04-03T01:30:26.475Z,926.99
2017-04-03T01:30:54.772Z,926.96
2017-04-03T01:31:23.083Z,926.94
2017-04-03T01:31:51.349Z,926.93
2017-04-03T01:32:19.685Z,926.92
2017-04-03T01:32:48.153Z,926.94
2017-04-03T01:33:16.862Z,926.88
2017-04-03T01:33:45.259Z,926.88
2017-04-03T01:34:13.733Z,926.85
2017-04-03T01:34:42.048Z,926.88
2017-04-03T01:35:10.224Z,926.87
2017-04-03T01:36:21.569Z,926.85
2017-04-03T01:36:49.901Z,926.87
2017-04-03T01:37:18.172Z,926.86
2017-04-03T01:37:46.432Z,926.87
2017-04-03T01:38:14.782Z,926.87
2017-04-03T01:38:43.198Z,926.89
2017-04-03T01:39:11.444Z,926.9
2017-04-03T01:39:39.790Z,926.9
2017-04-03T01:40:08.033Z,926.86
2017-04-03T01:40:36.281Z,926.93
2017-04-03T01:41:04.678Z,926.92
2017-04-03T01:42:16.019Z,926.86
2017-04-03T01:42:44.390Z,926.94
2017-04-03T01:43:12.694Z,926.93
2017-04-03T01:43:40.891Z,926.93
2017-04-03T01:44:09.013Z,926.94
2017-04-03T01:44:37.369Z,926.96
2017-04-03T01:45:06.519Z,926.89
2017-04-03T01:45:35.082Z,926.96
2017-04-03T01:46:03.518Z,926.92
2017-04-03T01:46:31.934Z,926.93
2017-04-03T01:47:00.225Z,926.93
2017-04-03T01:48:11.472Z,926.94
2017-04-03T01:48:39.768Z,926.91
2017-04-03T01:49:08.042Z,926.88
2017-04-03T01:49:36.146Z,926.89
2017-04-03T01:50:04.421Z,926.9
2017-04-03T01:50:32.836Z,926.96
2017-04-03T01:51:01.219Z,926.9
2017-04-03T01:51:29.287Z,926.88
2017-04-03T01:51:57.720Z,926.91
2017-04-03T01:52:26.095Z,926.94
2017-04-03T01:52:54.394Z,926.94
2017-04-03T01:54:05.752Z,927
2017-04-03T01:54:34.077Z,926.93
2017-04-03T01:55:02.208Z,926.96
2017-04-03T01:55:30.394Z,926.92
2017-04-03T01:55:58.681Z,926.93
2017-04-03T01:56:27.092Z,926.94
2017-04-03T01:56:55.460Z,926.93
2017-04-03T01:57:23.769Z,926.95
2017-04-03T01:57:52.126Z,926.91
2017-04-03T01:58:20.248Z,926.88
2017-04-03T01:58:48.605Z,926.9
2017-04-03T01:59:59.879Z,926.95
2017-04-03T02:00:28.076Z,926.93
2017-04-03T02:00:56.357Z,926.91
2017-04-03T02:01:24.408Z,926.96
2017-04-03T02:01:52.710Z,926.98
2017-04-03T02:02:21.087Z,926.94
2017-04-03T02:02:49.465Z,926.97
2017-04-03T02:03:17.747Z,926.95
2017-04-03T02:03:46.178Z,926.93
2017-04-03T02:04:14.448Z,926.91
2017-04-03T02:04:42.731Z,926.87
2017-04-03T02:05:54.094Z,926.91
2017-04-03T02:06:22.320Z,926.89
2017-04-03T02:06:50.588Z,926.85
2017-04-03T02:07:18.904Z,926.88
2017-04-03T02:07:47.184Z,926.89
2017-04-03T02:08:15.605Z,926.94
2017-04-03T02:08:43.948Z,926.88
2017-04-03T02:09:12.370Z,926.92
2017-04-03T02:09:40.927Z,926.89
2017-04-03T02:10:10.040Z,926.9
2017-04-03T02:10:38.441Z,926.92
2017-04-03T02:11:49.803Z,926.93
2017-04-03T02:12:18.215Z,926.96
2017-04-03T02:12:46.580Z,926.93
2017-04-03T02:13:14.923Z,926.89
2017-04-03T02:13:43.370Z,926.92
2017-04-03T02:14:11.850Z,926.93
2017-04-03T02:14:40.879Z,926.95
2017-04-03T02:15:09.223Z,926.92
2017-04-03T02:15:37.703Z,926.92
2017-04-03T02:16:06.055Z,926.85
2017-04-03T02:16:34.680Z,926.89
2017-04-03T02:17:45.839Z,926.91
2017-04-03T02:18:14.122Z,926.91
2017-04-03T02:18:42.445Z,926.96
2017-04-03T02:19:10.745Z,926.92
2017-04-03T02:19:39.045Z,926.86
2017-04-03T02:20:07.275Z,926.89
2017-04-03T02:20:35.609Z,926.87
2017-04-03T02:21:03.919Z,926.89
2017-04-03T02:21:32.251Z,926.89
2017-04-03T02:22:00.592Z,926.92
2017-04-03T02:22:28.941Z,926.89
2017-04-03T02:23:40.276Z,926.83
2017-04-03T02:24:08.643Z,926.92
2017-04-03T02:24:36.976Z,926.84
2017-04-03T02:25:05.104Z,926.87
2017-04-03T02:25:33.493Z,926.88
2017-04-03T02:26:01.822Z,926.92
2017-04-03T02:26:30.165Z,926.91
2017-04-03T02:26:58.548Z,926.88
2017-04-03T02:27:26.942Z,926.87
2017-04-03T02:27:55.179Z,926.88
2017-04-03T02:28:23.434Z,926.87
2017-04-03T02:29:34.779Z,926.9
2017-04-03T02:30:03.123Z,926.89
2017-04-03T02:30:31.350Z,926.8
2017-04-03T02:30:59.482Z,926.82
2017-04-03T02:31:27.766Z,926.76
2017-04-03T02:31:56.070Z,926.79
2017-04-03T02:32:24.405Z,926.8
2017-04-03T02:32:52.779Z,926.78
2017-04-03T02:33:21.071Z,926.8
2017-04-03T02:33:49.211Z,926.8
2017-04-03T02:34:17.542Z,926.79
2017-04-03T02:35:28.785Z,926.78
2017-04-03T02:35:57.034Z,926.81
2017-04-03T02:36:25.172Z,926.8
2017-04-03T02:36:53.378Z,926.79
2017-04-03T02:37:21.743Z,926.78
2017-04-03T02:37:50.050Z,926.79
2017-04-03T02:38:18.380Z,926.77
2017-04-03T02:38:46.666Z,926.78
2017-04-03T02:39:15.055Z,926.77
2017-04-03T02:39:43.373Z,926.76
2017-04-03T02:40:11.725Z,926.79
2017-04-03T02:41:22.967Z,926.79
2017-04-03T02:41:51.234Z,926.78
2017-04-03T02:42:19.463Z,926.8
2017-04-03T02:42:47.577Z,926.77
2017-04-03T02:43:15.944Z,926.75
2017-04-03T02:43:44.330Z,926.76
2017-04-03T02:44:12.671Z,926.79
2017-04-03T02:44:40.943Z,926.8
2017-04-03T02:45:09.327Z,926.78
2017-04-03T02:45:37.644Z,926.79
2017-04-03T02:46:05.881Z,926.79
2017-04-03T02:47:17.223Z,926.76
2017-04-03T02:47:45.394Z,926.76
2017-04-03T02:48:13.624Z,926.77
2017-04-03T02:48:41.933Z,926.77
2017-04-03T02:49:10.282Z,926.8
2017-04-03T02:49:38.650Z,926.8
2017-04-03T02:50:06.990Z,926.75
2017-04-03T02:50:35.343Z,926.75
2017-04-03T02:51:03.697Z,926.76
2017-04-03T02:51:31.826Z,926.79
2017-04-03T02:51:59.955Z,926.76
2017-04-03T02:53:12.034Z,926.78
2017-04-03T02:53:40.356Z,926.77
2017-04-03T02:54:08.559Z,926.77
2017-04-03T02:54:36.752Z,926.77
2017-04-03T02:55:04.973Z,926.77
2017-04-03T02:55:33.139Z,926.77
2017-04-03T02:56:01.261Z,926.75
2017-04-03T02:56:29.414Z,926.77
2017-04-03T02:56:57.660Z,926.76
2017-04-03T02:57:25.855Z,926.72
2017-04-03T02:57:54.080Z,926.78
2017-04-03T02:59:05.407Z,926.75
2017-04-03T02:59:33.714Z,926.8
2017-04-03T03:00:01.922Z,926.77
2017-04-03T03:00:30.110Z,926.71
2017-04-03T03:00:58.260Z,926.73
2017-04-03T03:01:26.674Z,926.72
2017-04-03T03:01:55.070Z,926.72
2017-04-03T03:02:23.407Z,926.72
2017-04-03T03:02:51.737Z,926.71
2017-04-03T03:03:19.948Z,926.71
2017-04-03T03:03:48.282Z,926.71
2017-04-03T03:04:59.509Z,926.74
2017-04-03T03:05:27.547Z,926.75
2017-04-03T03:05:55.753Z,926.69
2017-04-03T03:06:23.855Z,926.7
2017-04-03T03:06:52.114Z,926.76
2017-04-03T03:07:20.300Z,926.73
2017-04-03T03:07:48.615Z,926.74
2017-04-03T03:08:16.954Z,926.72
2017-04-03T03:08:45.201Z,926.72
2017-04-03T03:09:13.508Z,926.7
2017-04-03T03:09:41.833Z,926.74
2017-04-03T03:10:53.159Z,926.75
2017-04-03T03:11:21.372Z,926.75
2017-04-03T03:11:49.480Z,926.79
2017-04-03T03:12:17.674Z,926.78
2017-04-03T03:12:45.910Z,926.83
2017-04-03T03:13:14.274Z,926.78
2017-04-03T03:13:42.493Z,926.8
2017-04-03T03:14:10.835Z,926.79
2017-04-03T03:14:39.072Z,926.78
2017-04-03T03:15:07.269Z,926.83
2017-04-03T03:15:35.408Z,926.78
2017-04-03T03:16:46.653Z,926.76
2017-04-03T03:17:14.877Z,926.75
2017-04-03T03:17:43.088Z,926.73
2017-04-03T03:18:11.272Z,926.7
2017-04-03T03:18:39.523Z,926.7
2017-04-03T03:19:07.691Z,926.74
2017-04-03T03:19:35.906Z,926.68
2017-04-03T03:20:04.151Z,926.68
2017-04-03T03:20:32.483Z,926.7
2017-04-03T03:21:00.678Z,926.66
2017-04-03T03:21:29.108Z,926.68
2017-04-03T03:22:40.340Z,926.65
2017-04-03T03:23:08.469Z,926.65
2017-04-03T03:23:36.666Z,926.65
2017-04-03T03:24:04.758Z,926.67
2017-04-03T03:24:32.987Z,926.63
2017-04-03T03:25:01.061Z,926.64
2017-04-03T03:25:29.277Z,926.66
2017-04-03T03:25:57.611Z,926.67
2017-04-03T03:26:25.661Z,926.64
2017-04-03T03:26:53.860Z,926.65
2017-04-03T03:27:22.090Z,926.64
2017-04-03T03:28:33.412Z,926.67
2017-04-03T03:29:01.541Z,926.66
2017-04-03T03:29:29.562Z,926.68
2017-04-03T03:29:57.847Z,926.66
2017-04-03T03:30:26.074Z,926.69
2017-04-03T03:30:54.240Z,926.66
2017-04-03T03:31:22.454Z,926.65
2017-04-03T03:31:50.685Z,926.63
2017-04-03T03:32:18.914Z,926.69
2017-04-03T03:32:46.927Z,926.7
2017-04-03T03:33:15.196Z,926.69
2017-04-03T03:34:26.521Z,926.72
2017-04-03T03:34:54.837Z,926.74
2017-04-03T03:35:23.034Z,926.74
2017-04-03T03:35:51.226Z,926.7
2017-04-03T03:36:19.541Z,926.68
2017-04-03T03:36:47.619Z,926.7
2017-04-03T03:37:15.824Z,926.62
2017-04-03T03:37:44.068Z,926.69
2017-04-03T03:38:12.301Z,926.68
2017-04-03T03:38:40.498Z,926.67
2017-04-03T03:39:08.816Z,926.64
2017-04-03T03:40:20.138Z,926.69
2017-04-03T03:40:48.449Z,926.65
2017-04-03T03:41:16.557Z,926.68
2017-04-03T03:41:44.749Z,926.67
2017-04-03T03:42:13.062Z,926.69
2017-04-03T03:42:41.145Z,926.73
2017-04-03T03:43:09.357Z,926.71
2017-04-03T03:43:37.602Z,926.68
2017-04-03T03:44:05.742Z,926.69
2017-04-03T03:44:34.035Z,926.73
2017-04-03T03:45:02.073Z,926.76
2017-04-03T03:46:13.305Z,926.72
2017-04-03T03:46:41.615Z,926.76
2017-04-03T03:47:09.816Z,926.73
2017-04-03T03:47:38.096Z,926.72
2017-04-03T03:48:06.412Z,926.75
2017-04-03T03:48:34.673Z,926.71
2017-04-03T03:49:02.800Z,926.75
2017-04-03T03:49:31.042Z,926.7
2017-04-03T03:49:59.367Z,926.7
2017-04-03T03:50:27.653Z,926.69
2017-04-03T03:50:55.881Z,926.69
2017-04-03T03:52:07.114Z,926.68
2017-04-03T03:52:35.240Z,926.69
2017-04-03T03:53:03.346Z,926.63
2017-04-03T03:53:31.537Z,926.68
2017-04-03T03:53:59.760Z,926.68
2017-04-03T03:54:28.021Z,926.66
2017-04-03T03:54:56.328Z,926.65
2017-04-03T03:55:24.661Z,926.65
2017-04-03T03:55:52.896Z,926.67
2017-04-03T03:56:21.188Z,926.64
2017-04-03T03:56:49.510Z,926.64
2017-04-03T03:58:00.647Z,926.62
2017-04-03T03:58:28.856Z,926.64
2017-04-03T03:58:57.053Z,926.6
2017-04-03T03:59:25.330Z,926.59
2017-04-03T03:59:53.365Z,926.58
2017-04-03T04:00:21.440Z,926.63
2017-04-03T04:00:49.744Z,926.6
2017-04-03T04:01:17.885Z,926.64
2017-04-03T04:01:46.203Z,926.63
2017-04-03T04:02:14.314Z,926.61
2017-04-03T04:02:42.632Z,926.64
2017-04-03T04:03:53.865Z,926.63
2017-04-03T04:04:22.079Z,926.6
2017-04-03T04:04:50.090Z,926.62
2017-04-03T04:05:18.367Z,926.67
2017-04-03T04:05:46.584Z,926.64
2017-04-03T04:06:14.748Z,926.62
2017-04-03T04:06:43.048Z,926.62
2017-04-03T04:07:11.194Z,926.64
2017-04-03T04:07:39.420Z,926.63
2017-04-03T04:08:07.258Z,926.58
2017-04-03T04:08:35.383Z,926.62
2017-04-03T04:09:46.617Z,926.62
2017-04-03T04:10:14.831Z,926.58
2017-04-03T04:10:43.033Z,926.6
2017-04-03T04:11:11.132Z,926.54
2017-04-03T04:11:39.351Z,926.57
2017-04-03T04:12:07.614Z,926.57
2017-04-03T04:12:35.823Z,926.56
2017-04-03T04:13:04.053Z,926.58
2017-04-03T04:13:32.191Z,926.55
2017-04-03T04:14:00.393Z,926.54
2017-04-03T04:14:28.709Z,926.55
2017-04-03T04:15:39.939Z,926.55
2017-04-03T04:16:08.060Z,926.53
2017-04-03T04:16:36.257Z,926.52
2017-04-03T04:17:04.446Z,926.52
2017-04-03T04:17:32.670Z,926.52
2017-04-03T04:18:00.929Z,926.51
2017-04-03T04:18:28.953Z,926.55
2017-04-03T04:18:57.006Z,926.49
2017-04-03T04:19:25.322Z,926.53
2017-04-03T04:19:53.516Z,926.5
2017-04-03T04:20:21.555Z,926.53
2017-04-03T04:21:32.778Z,926.51
2017-04-03T04:22:00.721Z,926.5
2017-04-03T04:22:28.829Z,926.53
2017-04-03T04:22:57.015Z,926.54
2017-04-03T04:23:25.330Z,926.56
2017-04-03T04:23:53.591Z,926.53
2017-04-03T04:24:21.625Z,926.54
2017-04-03T04:24:49.952Z,926.54
2017-04-03T04:25:18.082Z,926.52
2017-04-03T04:25:46.186Z,926.58
2017-04-03T04:26:14.413Z,926.55
2017-04-03T04:27:25.643Z,926.58
2017-04-03T04:27:53.768Z,926.55
2017-04-03T04:28:21.880Z,926.57
2017-04-03T04:28:50.069Z,926.54
2017-04-03T04:29:18.292Z,926.54
2017-04-03T04:29:46.646Z,926.55
2017-04-03T04:30:14.950Z,926.55
2017-04-03T04:30:43.286Z,926.56
2017-04-03T04:31:11.414Z,926.56
2017-04-03T04:31:39.516Z,926.56
2017-04-03T04:32:07.648Z,926.57
2017-04-03T04:33:18.969Z,926.58
2017-04-03T04:33:47.100Z,926.52
2017-04-03T04:34:15.207Z,926.53
2017-04-03T04:34:43.496Z,926.57
2017-04-03T04:35:11.713Z,926.53
2017-04-03T04:35:40.068Z,926.53
2017-04-03T04:36:08.182Z,926.49
2017-04-03T04:36:36.329Z,926.5
2017-04-03T04:37:04.555Z,926.53
2017-04-03T04:37:32.667Z,926.49
2017-04-03T04:38:00.984Z,926.49
2017-04-03T04:39:12.306Z,926.51
2017-04-03T04:39:40.618Z,926.56
2017-04-03T04:40:08.822Z,926.52
2017-04-03T04:40:37.107Z,926.48
2017-04-03T04:41:05.423Z,926.53
2017-04-03T04:41:33.683Z,926.52
2017-04-03T04:42:01.807Z,926.51
2017-04-03T04:42:30.135Z,926.53
2017-04-03T04:42:58.456Z,926.56
2017-04-03T04:43:26.745Z,926.51
2017-04-03T04:43:55.061Z,926.5
2017-04-03T04:45:06.300Z,926.53
2017-04-03T04:45:34.525Z,926.53
2017-04-03T04:46:02.552Z,926.52
2017-04-03T04:46:30.742Z,926.53
2017-04-03T04:46:58.962Z,926.54
2017-04-03T04:47:27.073Z,926.45
2017-04-03T04:47:55.195Z,926.47
2017-04-03T04:48:23.435Z,926.47
2017-04-03T04:48:51.760Z,926.48
2017-04-03T04:49:19.870Z,926.46
2017-04-03T04:49:48.191Z,926.46
2017-04-03T04:50:59.425Z,926.51
2017-04-03T04:51:27.643Z,926.45
2017-04-03T04:51:55.932Z,926.48
2017-04-03T04:52:24.126Z,926.48
2017-04-03T04:52:52.256Z,926.49
2017-04-03T04:53:20.616Z,926.47
2017-04-03T04:53:48.929Z,926.51
2017-04-03T04:54:16.980Z,926.51
2017-04-03T04:54:45.219Z,926.48
2017-04-03T04:55:13.418Z,926.51
2017-04-03T04:55:41.597Z,926.47
2017-04-03T04:56:52.916Z,926.5
2017-04-03T04:57:21.044Z,926.45
2017-04-03T04:57:49.147Z,926.47
2017-04-03T04:58:17.332Z,926.47
2017-04-03T04:58:45.650Z,926.49
2017-04-03T04:59:13.822Z,926.45
2017-04-03T04:59:42.042Z,926.48
2017-04-03T05:00:10.291Z,926.46
2017-04-03T05:00:38.426Z,926.52
2017-04-03T05:01:06.531Z,926.52
2017-04-03T05:01:34.848Z,926.45
2017-04-03T05:02:46.169Z,926.52
2017-04-03T05:03:14.286Z,926.53
2017-04-03T05:03:42.390Z,926.48
2017-04-03T05:04:10.673Z,926.51
2017-04-03T05:04:38.902Z,926.51
2017-04-03T05:05:07.254Z,926.53
2017-04-03T05:05:36.103Z,926.5
2017-04-03T05:06:04.156Z,926.47
2017-04-03T05:06:32.484Z,926.53
2017-04-03T05:07:00.593Z,926.58
2017-04-03T05:07:28.726Z,926.52
2017-04-03T05:08:39.956Z,926.52
2017-04-03T05:09:08.170Z,926.5
2017-04-03T05:09:36.182Z,926.5
2017-04-03T05:10:04.275Z,926.49
2017-04-03T05:10:32.503Z,926.55
2017-04-03T05:11:00.759Z,926.52
2017-04-03T05:11:29.063Z,926.48
2017-04-03T05:11:57.395Z,926.47
2017-04-03T05:12:25.719Z,926.48
2017-04-03T05:12:53.833Z,926.47
2017-04-03T05:13:21.870Z,926.43
2017-04-03T05:14:33.191Z,926.4
2017-04-03T05:15:01.224Z,926.43
2017-04-03T05:15:29.515Z,926.41
2017-04-03T05:15:57.806Z,926.43
2017-04-03T05:16:26.122Z,926.45
2017-04-03T05:16:54.385Z,926.45
2017-04-03T05:17:22.598Z,926.43
2017-04-03T05:17:50.837Z,926.42
2017-04-03T05:18:19.068Z,926.4
2017-04-03T05:18:47.362Z,926.43
2017-04-03T05:19:15.678Z,926.4
2017-04-03T05:20:26.824Z,926.35
2017-04-03T05:20:54.857Z,926.4
2017-04-03T05:21:23.149Z,926.37
2017-04-03T05:21:51.434Z,926.42
2017-04-03T05:22:19.751Z,926.41
2017-04-03T05:22:48.016Z,926.43
2017-04-03T05:23:16.232Z,926.4
2017-04-03T05:23:44.374Z,926.39
2017-04-03T05:24:12.609Z,926.42
2017-04-03T05:24:40.709Z,926.35
2017-04-03T05:25:09.029Z,926.35
2017-04-03T05:26:20.352Z,926.38
2017-04-03T05:26:48.479Z,926.4
2017-04-03T05:27:16.804Z,926.38
2017-04-03T05:27:44.867Z,926.38
2017-04-03T05:28:13.184Z,926.35
2017-04-03T05:28:41.449Z,926.37
2017-04-03T05:29:09.748Z,926.37
2017-04-03T05:29:37.802Z,926.38
2017-04-03T05:30:06.022Z,926.38
2017-04-03T05:30:34.128Z,926.31
2017-04-03T05:31:02.448Z,926.32
2017-04-03T05:32:13.678Z,926.31
2017-04-03T05:32:41.892Z,926.36
2017-04-03T05:33:10.091Z,926.32
2017-04-03T05:33:38.280Z,926.29
2017-04-03T05:34:06.409Z,926.29
2017-04-03T05:34:34.678Z,926.27
2017-04-03T05:35:02.896Z,926.32
2017-04-03T05:35:31.128Z,926.33
2017-04-03T05:35:59.449Z,926.32
2017-04-03T05:36:28.097Z,926.34
2017-04-03T05:36:56.419Z,926.28
2017-04-03T05:38:07.745Z,926.27
2017-04-03T05:38:35.867Z,926.28
2017-04-03T05:39:03.977Z,926.28
2017-04-03T05:39:32.259Z,926.29
2017-04-03T05:40:00.479Z,926.26
2017-04-03T05:40:28.741Z,926.25
2017-04-03T05:40:56.866Z,926.29
2017-04-03T05:41:25.196Z,926.3
2017-04-03T05:41:53.424Z,926.25
2017-04-03T05:42:21.718Z,926.28
2017-04-03T05:42:49.853Z,926.25
2017-04-03T05:44:01.080Z,926.24
2017-04-03T05:44:29.297Z,926.33
2017-04-03T05:44:57.305Z,926.28
2017-04-03T05:45:25.398Z,926.29
2017-04-03T05:45:53.626Z,926.27
2017-04-03T05:46:21.985Z,926.27
2017-04-03T05:46:50.294Z,926.25
2017-04-03T05:47:18.625Z,926.24
2017-04-03T05:47:46.762Z,926.25
2017-04-03T05:48:14.959Z,926.28
2017-04-03T05:48:43.274Z,926.24
2017-04-03T05:49:54.606Z,926.22
2017-04-03T05:50:22.734Z,926.24
2017-04-03T05:50:50.846Z,926.28
2017-04-03T05:51:19.125Z,926.26
2017-04-03T05:51:47.437Z,926.3
2017-04-03T05:52:15.514Z,926.27
2017-04-03T05:52:43.725Z,926.3
2017-04-03T05:53:11.872Z,926.27
2017-04-03T05:53:40.187Z,926.32
2017-04-03T05:54:08.384Z,926.31
2017-04-03T05:54:36.703Z,926.26
2017-04-03T05:55:48.027Z,926.31
2017-04-03T05:56:16.153Z,926.28
2017-04-03T05:56:44.445Z,926.28
2017-04-03T05:57:12.541Z,926.22
2017-04-03T05:57:40.761Z,926.31
2017-04-03T05:58:08.930Z,926.25
2017-04-03T05:58:37.046Z,926.23
2017-04-03T05:59:05.194Z,926.23
2017-04-03T05:59:33.420Z,926.22
2017-04-03T06:00:01.616Z,926.22
2017-04-03T06:00:29.941Z,926.19
2017-04-03T06:01:41.171Z,926.22
2017-04-03T06:02:09.292Z,926.24
2017-04-03T06:02:37.400Z,926.26
2017-04-03T06:03:05.592Z,926.24
2017-04-03T06:03:33.905Z,926.21
2017-04-03T06:04:02.068Z,926.21
2017-04-03T06:04:30.372Z,926.23
2017-04-03T06:04:58.608Z,926.2
2017-04-03T06:05:26.836Z,926.21
2017-04-03T06:05:54.849Z,926.21
2017-04-03T06:06:23.166Z,926.21
2017-04-03T06:07:34.398Z,926.15
2017-04-03T06:08:02.340Z,926.16
2017-04-03T06:08:30.543Z,926.16
2017-04-03T06:08:58.636Z,926.14
2017-04-03T06:09:26.859Z,926.17
2017-04-03T06:09:55.214Z,926.15
2017-04-03T06:10:23.333Z,926.16
2017-04-03T06:10:51.569Z,926.14
2017-04-03T06:11:19.896Z,926.11
2017-04-03T06:11:47.812Z,926.14
2017-04-03T06:12:15.945Z,926.11
2017-04-03T06:13:27.182Z,926.11
2017-04-03T06:13:55.494Z,926.11
2017-04-03T06:14:23.692Z,926.05
2017-04-03T06:14:51.886Z,926.07
2017-04-03T06:15:20.111Z,926.14
2017-04-03T06:15:48.376Z,926.09
2017-04-03T06:16:16.589Z,926.04
2017-04-03T06:16:44.827Z,926.05
2017-04-03T06:17:13.154Z,926.07
2017-04-03T06:17:41.354Z,926.02
2017-04-03T06:18:09.583Z,926.06
2017-04-03T06:19:20.908Z,926.04
2017-04-03T06:19:49.126Z,926.01
2017-04-03T06:20:17.325Z,926.02
2017-04-03T06:20:45.519Z,926.01
2017-04-03T06:21:13.835Z,926.01
2017-04-03T06:21:41.908Z,925.97
2017-04-03T06:22:10.126Z,925.95
2017-04-03T06:22:38.361Z,925.97
2017-04-03T06:23:06.681Z,925.94
2017-04-03T06:23:34.786Z,925.98
2017-04-03T06:24:03.010Z,925.96
2017-04-03T06:25:14.241Z,925.95
2017-04-03T06:25:42.551Z,925.93
2017-04-03T06:26:10.665Z,925.96
2017-04-03T06:26:38.946Z,925.97
2017-04-03T06:27:07.198Z,925.98
2017-04-03T06:27:35.457Z,925.99
2017-04-03T06:28:03.766Z,925.95
2017-04-03T06:28:32.097Z,925.98
2017-04-03T06:29:00.332Z,925.98
2017-04-03T06:29:28.531Z,925.94
2017-04-03T06:29:56.760Z,925.94
2017-04-03T06:31:07.900Z,925.93
2017-04-03T06:31:36.212Z,925.9
2017-04-03T06:32:04.408Z,925.89
2017-04-03T06:32:32.510Z,925.92
2017-04-03T06:33:00.642Z,925.91
2017-04-03T06:33:28.996Z,925.92
2017-04-03T06:33:57.209Z,925.92
2017-04-03T06:34:25.541Z,925.92
2017-04-03T06:34:53.869Z,925.9
2017-04-03T06:35:22.161Z,925.89
2017-04-03T06:35:50.481Z,925.94
2017-04-03T06:37:01.712Z,925.91
2017-04-03T06:37:29.834Z,925.95
2017-04-03T06:37:57.985Z,925.92
2017-04-03T06:38:26.264Z,925.94
2017-04-03T06:38:54.484Z,925.93
2017-04-03T06:39:22.741Z,925.94
2017-04-03T06:39:50.956Z,925.93
2017-04-03T06:40:19.010Z,925.92
2017-04-03T06:40:47.242Z,925.91
2017-04-03T06:41:15.353Z,925.91
2017-04-03T06:41:43.489Z,925.92
2017-04-03T06:42:54.812Z,925.94
2017-04-03T06:43:23.034Z,925.87